NCAR-RAP Real-Time Weather Data

Output produced by METARs form (12 August 2020  18:09 UTC)
found at http://weather.rap.ucar.edu/surface/
 
KISP 121756Z 18006KT 10SM SCT023TCU BKN041 BKN120 31/25 A3002 RMK AO2 LTG DSNT W RAE1658 SLP164 TCU NW-NE P0000 60000 T03060250 10306 20239 57005
KISP 121737Z 18007KT 9SM BKN021 BKN041TCU 30/25 A3002 RMK AO2 LTG DSNT W RAE1658 TCU NW-NE P0000 T03000250
KISP 121656Z 13004KT 8SM -RA BKN014 BKN041TCU 28/24 A3002 RMK AO2 RAB40 SLP165 TCU NW-NE P0000 T02830244
KISP 121556Z VRB05KT 9SM BKN014 BKN020 29/25 A3003 RMK AO2 SLP168 T02890250
KISP 121552Z 12003KT 9SM BKN014 BKN020 28/24 A3004 RMK AO2
KISP 121529Z 00000KT 9SM SCT014 BKN022 28/25 A3004 RMK AO2 T02780250
KISP 121456Z 19003KT 10SM BKN008 BKN018 28/25 A3004 RMK AO2 SLP169 T02780250 53004
KISP 121356Z 20003KT 9SM BKN008 BKN200 26/24 A3002 RMK AO2 SLP166 T02560244
KISP 121310Z 16004KT 10SM BKN008 26/24 A3002 RMK AO2 T02560239
KISP 121256Z VRB03KT 10SM SCT008 SCT150 BKN250 25/24 A3002 RMK AO2 SLP165 T02500239
KISP 121156Z 19006KT 6SM BR BKN004 BKN080 BKN200 24/24 A3002 RMK AO2 RAE20 TSE20 SLP165 P0000 60045 70045 T02440239 10250 20233 53007
KISP 121120Z 14005KT 8SM FEW014 SCT037 SCT090 SCT150 BKN200 BKN250 24/24 A3000 RMK AO2 RAE20 TSE20 OCNL LTGIC DSNT SE CB DSNT SE MOV SE P0000 T02440239
KISP 121056Z 20006KT 8SM -TSRA SCT016 BKN039CB BKN080 BKN150 BKN200 24/24 A3000 RMK AO2 SLP158 FRQ LTGICCG SE TS SE MOV SE P0044 T02440239
KISP 121033Z 18005KT 7SM -TSRA FEW016 BKN036CB BKN080 BKN150 BKN200 24/23 A3001 RMK AO2 FRQ LTGICCG E TS E MOV SE P0044 T02390233
KISP 120956Z 35008KT 1 3/4SM R06/3000VP6000FT TSRA BR BKN004 BKN035CB BKN110 BKN200 24/24 A3000 RMK AO2 RAB54 TSE12B24E39B54 SLP158 OCNL LTGIC W-NE TS W-NE MOV E P0001 T02440239
KISP 120945Z AUTO 00000KT 6SM VCTS BR OVC004 24/24 A3000 RMK AO2 LTG DSNT ALQDS TSE12B24E39 T02390239
KISP 120930Z AUTO 23004KT 6SM TS BR BKN004 OVC049 24/24 A2999 RMK AO2 LTG DSNT N AND W TSE12B24 T02390239
KISP 120918Z AUTO 20004KT 6SM VCTS BR BKN004 BKN037 OVC050 24/24 A2999 RMK AO2 LTG DSNT N AND W TSE12 T02390239
KISP 120903Z AUTO 22005KT 6SM BR BKN004 BKN050 24/24 A2998 RMK AO2 LTG DSNT N AND NW T02390239
KISP 120856Z AUTO 21005KT 7SM SCT004 BKN050 24/24 A2999 RMK AO2 LTG DSNT N AND NW SLP152 T02390239 53002
KISP 120843Z AUTO 21007KT 7SM SCT005 24/24 A2998 RMK AO2 LTG DSNT NW T02390239
KISP 120756Z AUTO 21006KT 8SM BKN006 24/24 A2998 RMK AO2 SLP152 T02440239
KISP 120656Z AUTO 22008KT 9SM OVC006 24/24 A2998 RMK AO2 SLP150 T02440239
KISP 120556Z AUTO 22007KT 10SM OVC007 25/24 A2998 RMK AO2 SLP151 T02500239 10256 20250 53002
KISP 120456Z AUTO 21010KT 10SM OVC007 25/24 A2997 RMK AO2 CIG 006V012 SLP149 T02500244 402830228
KISP 120356Z 21012KT 10SM OVC008 26/24 A2998 RMK AO2 SLP150 LAST T02560244
KISP 120256Z 22009KT 10SM BKN009 OVC012 26/24 A2998 RMK AO2 SLP149 T02560244 53007
KISP 120156Z 21012KT 10SM OVC006 26/24 A2997 RMK AO2 SLP147 T02560244
KISP 120056Z 20010G17KT 10SM OVC007 26/24 A2996 RMK AO2 SLP144 T02560244
KISP 112356Z 20010KT 10SM OVC008 26/24 A2995 RMK AO2 SLP142 T02560244 10278 20256 55001
KISP 112256Z 18011KT 10SM BKN008 BKN050 OVC250 26/24 A2995 RMK AO2 SLP140 T02610244
KISP 112213Z 19013KT 10SM BKN008 BKN050 OVC250 26/24 A2995 RMK AO2 T02610239
KISP 112156Z 20011KT 10SM OVC011 26/24 A2995 RMK AO2 SLP142 T02610239
KISP 112056Z 20009G20KT 10SM BKN011 BKN040 BKN250 28/24 A2996 RMK AO2 SLP143 T02780244 56013